createdAt,value
2023-02-05T00:00:26.099Z,2.10
2023-02-05T00:02:52.509Z,2.55
2023-02-05T00:05:18.939Z,2.13
2023-02-05T00:07:45.380Z,2.60
2023-02-05T00:10:11.892Z,3.17
2023-02-05T00:12:38.874Z,2.40
2023-02-05T00:15:05.800Z,2.33
2023-02-05T00:17:32.223Z,2.92
2023-02-05T00:19:58.692Z,2.50
2023-02-05T00:22:25.189Z,2.42
2023-02-05T00:24:51.718Z,2.53
2023-02-05T00:27:18.209Z,3.25
2023-02-05T00:29:44.614Z,1.95
2023-02-05T00:32:10.974Z,2.45
2023-02-05T00:34:37.424Z,2.67
2023-02-05T00:37:05.738Z,2.50
2023-02-05T00:39:34.765Z,2.63
2023-02-05T00:42:01.162Z,2.67
2023-02-05T00:44:27.567Z,3.38
2023-02-05T00:46:53.939Z,2.28
2023-02-05T00:49:20.418Z,3.92
2023-02-05T00:51:46.943Z,3.13
2023-02-05T00:54:13.394Z,3.25
2023-02-05T00:56:39.840Z,3.45
2023-02-05T00:59:07.381Z,4.75
2023-02-05T01:01:35.308Z,2.60
2023-02-05T01:04:01.829Z,2.70
2023-02-05T01:06:28.268Z,3.35
2023-02-05T01:08:54.667Z,2.90
2023-02-05T01:11:21.103Z,3.40
2023-02-05T01:13:47.560Z,2.67
2023-02-05T01:16:14.096Z,3.80
2023-02-05T01:18:40.576Z,4.00
2023-02-05T01:21:06.998Z,3.08
2023-02-05T01:23:33.451Z,3.25
2023-02-05T01:25:59.880Z,2.92
2023-02-05T01:28:26.272Z,2.92
2023-02-05T01:30:52.815Z,3.70
2023-02-05T01:33:19.411Z,2.33
2023-02-05T01:35:45.914Z,2.65
2023-02-05T01:38:12.684Z,2.92
2023-02-05T01:40:39.217Z,2.78
2023-02-05T01:43:11.604Z,2.70
2023-02-05T01:48:04.768Z,3.35
2023-02-05T01:50:35.618Z,3.40
2023-02-05T01:53:03.577Z,3.15
2023-02-05T01:55:30.898Z,2.53
2023-02-05T01:57:57.745Z,2.28
2023-02-05T02:00:24.276Z,3.28
2023-02-05T02:02:51.093Z,3.58
2023-02-05T02:05:18.158Z,3.03
2023-02-05T02:07:44.878Z,2.60
2023-02-05T02:10:13.672Z,2.75
2023-02-05T02:12:41.582Z,2.40
2023-02-05T02:15:13.186Z,2.72
2023-02-05T02:17:41.309Z,2.45
2023-02-05T02:20:07.828Z,2.05
2023-02-05T02:22:34.215Z,3.00
2023-02-05T02:25:13.401Z,2.20
2023-02-05T02:27:39.813Z,2.28
2023-02-05T02:30:15.271Z,2.97
2023-02-05T02:32:45.864Z,2.30
2023-02-05T02:35:18.221Z,2.42
2023-02-05T02:40:29.832Z,2.40
2023-02-05T02:43:06.022Z,4.10
2023-02-05T02:45:34.279Z,2.45
2023-02-05T02:48:01.257Z,2.72
2023-02-05T02:50:32.879Z,2.55
2023-02-05T02:53:10.044Z,3.08
2023-02-05T02:55:38.017Z,2.63
2023-02-05T02:58:07.072Z,2.70
2023-02-05T03:00:34.468Z,2.42
2023-02-05T03:03:03.284Z,2.72
2023-02-05T03:05:30.172Z,2.60
2023-02-05T03:07:59.561Z,2.88
2023-02-05T03:10:32.220Z,2.50
2023-02-05T03:12:58.732Z,2.72
2023-02-05T03:15:25.421Z,2.53
2023-02-05T03:17:53.557Z,2.88
2023-02-05T03:20:22.636Z,2.50
2023-02-05T03:22:49.065Z,2.38
2023-02-05T03:25:16.376Z,3.53
2023-02-05T03:27:42.963Z,2.75
2023-02-05T03:30:09.836Z,2.42
2023-02-05T03:32:42.360Z,2.78
2023-02-05T03:35:48.502Z,2.78
2023-02-05T03:38:32.311Z,1.95
2023-02-05T03:41:05.658Z,2.25
2023-02-05T03:43:50.706Z,1.92
2023-02-05T03:46:27.399Z,2.40
2023-02-05T03:49:01.910Z,1.92
2023-02-05T03:51:35.839Z,2.28
2023-02-05T03:54:11.421Z,2.13
2023-02-05T03:56:45.741Z,2.22
2023-02-05T03:59:13.832Z,2.08
2023-02-05T04:01:40.457Z,2.70
2023-02-05T04:04:06.866Z,2.50
2023-02-05T04:06:33.247Z,2.53
2023-02-05T04:08:59.682Z,1.67
2023-02-05T04:11:31.169Z,2.10
2023-02-05T04:13:57.542Z,2.33
2023-02-05T04:16:26.285Z,1.67
2023-02-05T04:18:52.782Z,3.42
2023-02-05T04:21:19.204Z,2.25
2023-02-05T04:23:45.682Z,2.08
2023-02-05T04:26:14.549Z,1.67
2023-02-05T04:28:41.002Z,2.30
2023-02-05T04:31:11.655Z,2.10
2023-02-05T04:33:38.773Z,2.25
2023-02-05T04:36:05.449Z,2.55
2023-02-05T04:38:31.820Z,2.22
2023-02-05T04:40:59.343Z,2.05
2023-02-05T04:43:25.777Z,1.85
2023-02-05T04:45:52.231Z,2.00
2023-02-05T04:48:19.279Z,2.20
2023-02-05T04:50:45.671Z,1.73
2023-02-05T04:53:13.221Z,1.50
2023-02-05T04:55:39.650Z,1.27
2023-02-05T04:58:06.066Z,1.67
2023-02-05T05:00:32.503Z,1.65
2023-02-05T05:02:58.948Z,2.25
2023-02-05T05:05:25.392Z,2.28
2023-02-05T05:07:54.634Z,2.15
2023-02-05T05:10:21.074Z,1.88
2023-02-05T05:12:48.673Z,1.85
2023-02-05T05:15:15.160Z,1.83
2023-02-05T05:17:41.599Z,2.17
2023-02-05T05:20:08.232Z,1.48
2023-02-05T05:22:34.658Z,2.17
2023-02-05T05:25:01.117Z,1.45
2023-02-05T05:27:27.609Z,2.25
2023-02-05T05:29:54.111Z,1.77
2023-02-05T05:32:20.552Z,2.28
2023-02-05T05:34:47.028Z,1.60
2023-02-05T05:37:13.431Z,1.42
2023-02-05T05:39:58.468Z,1.13
2023-02-05T05:42:43.461Z,2.08
2023-02-05T05:45:10.057Z,2.42
2023-02-05T05:47:36.501Z,1.05
2023-02-05T05:50:04.502Z,2.10
2023-02-05T05:52:32.468Z,1.27
2023-02-05T05:54:59.273Z,1.52
2023-02-05T05:57:28.714Z,1.75
2023-02-05T05:59:55.156Z,1.67
2023-02-05T06:02:21.675Z,1.85
2023-02-05T06:04:48.453Z,1.80
2023-02-05T06:07:14.929Z,1.70
2023-02-05T06:09:41.419Z,1.85
2023-02-05T06:12:08.047Z,1.58
2023-02-05T06:14:35.071Z,1.77
2023-02-05T06:17:01.565Z,2.13
2023-02-05T06:19:28.058Z,1.70
2023-02-05T06:21:54.490Z,1.60
2023-02-05T06:24:20.917Z,1.58
2023-02-05T06:26:47.368Z,1.65
2023-02-05T06:29:13.991Z,1.58
2023-02-05T06:31:40.455Z,2.45
2023-02-05T06:34:06.934Z,2.53
2023-02-05T06:36:33.415Z,2.35
2023-02-05T06:38:59.824Z,1.52
2023-02-05T06:41:26.351Z,1.60
2023-02-05T06:43:52.801Z,2.38
2023-02-05T06:46:19.303Z,2.15
2023-02-05T06:48:45.722Z,1.88
2023-02-05T06:51:13.508Z,2.20
2023-02-05T06:53:39.892Z,1.58
2023-02-05T06:56:06.470Z,1.75
2023-02-05T06:58:35.172Z,1.73
2023-02-05T07:01:02.436Z,1.95
2023-02-05T07:03:28.880Z,2.22
2023-02-05T07:05:58.954Z,2.15
2023-02-05T07:08:25.327Z,1.85
2023-02-05T07:10:51.770Z,2.90
2023-02-05T07:13:20.051Z,3.00
2023-02-05T07:15:47.408Z,2.00
2023-02-05T07:18:13.919Z,2.15
2023-02-05T07:20:40.384Z,2.28
2023-02-05T07:23:10.411Z,1.75
2023-02-05T07:25:38.223Z,3.08
2023-02-05T07:28:05.833Z,2.25
2023-02-05T07:30:32.251Z,2.58
2023-02-05T07:33:00.783Z,2.47
2023-02-05T07:35:27.230Z,3.03
2023-02-05T07:37:53.675Z,2.47
2023-02-05T07:40:20.170Z,2.08
2023-02-05T07:42:46.611Z,2.78
2023-02-05T07:45:13.170Z,2.90
2023-02-05T07:47:39.590Z,2.50
2023-02-05T07:50:10.686Z,3.13
2023-02-05T07:52:37.169Z,2.90
2023-02-05T07:55:03.611Z,3.10
2023-02-05T07:57:29.971Z,2.60
2023-02-05T07:59:56.801Z,3.35
2023-02-05T08:02:23.255Z,3.30
2023-02-05T08:04:49.681Z,3.67
2023-02-05T08:07:16.132Z,3.72
2023-02-05T08:09:42.595Z,2.95
2023-02-05T08:12:09.207Z,3.67
2023-02-05T08:14:35.866Z,3.08
2023-02-05T08:17:02.383Z,4.07
2023-02-05T08:19:31.586Z,3.50
2023-02-05T08:21:57.988Z,2.85
2023-02-05T08:24:26.845Z,3.70
2023-02-05T08:26:53.288Z,3.50
2023-02-05T08:29:19.741Z,4.00
2023-02-05T08:31:46.277Z,3.30
2023-02-05T08:34:12.684Z,3.88
2023-02-05T08:36:40.896Z,3.60
2023-02-05T08:39:07.305Z,3.72
2023-02-05T08:41:33.794Z,3.47
2023-02-05T08:44:00.230Z,3.13
2023-02-05T08:46:31.547Z,2.45
2023-02-05T08:49:03.785Z,3.22
2023-02-05T08:51:30.561Z,3.08
2023-02-05T08:53:59.734Z,2.63
2023-02-05T08:56:26.245Z,2.65
2023-02-05T08:58:52.687Z,3.30
2023-02-05T09:01:19.230Z,2.83
2023-02-05T09:03:48.336Z,3.28
2023-02-05T09:06:15.907Z,2.63
2023-02-05T09:08:42.363Z,2.85
2023-02-05T09:11:08.909Z,3.63
2023-02-05T09:13:35.544Z,2.60
2023-02-05T09:16:02.280Z,3.25
2023-02-05T09:18:28.704Z,3.00
2023-02-05T09:20:55.092Z,2.55
2023-02-05T09:23:23.886Z,3.42
2023-02-05T09:25:50.357Z,2.83
2023-02-05T09:28:16.836Z,2.65
2023-02-05T09:30:44.846Z,2.88
2023-02-05T09:33:11.766Z,3.88
2023-02-05T09:35:38.642Z,3.08
2023-02-05T09:38:05.698Z,4.15
2023-02-05T09:40:39.271Z,3.65
2023-02-05T09:43:05.660Z,3.00
2023-02-05T09:45:32.176Z,2.55
2023-02-05T09:48:22.791Z,3.35
2023-02-05T09:50:49.736Z,2.42
2023-02-05T09:53:20.061Z,2.50
2023-02-05T09:55:47.300Z,2.95
2023-02-05T09:58:19.515Z,2.55
2023-02-05T10:00:51.152Z,2.50
2023-02-05T10:03:22.058Z,2.33
2023-02-05T10:06:11.568Z,2.72
2023-02-05T10:08:52.842Z,3.42
2023-02-05T10:11:27.078Z,2.85
2023-02-05T10:14:03.092Z,2.50
2023-02-05T10:17:01.685Z,2.45
2023-02-05T10:19:54.136Z,2.20
2023-02-05T10:22:26.193Z,1.73
2023-02-05T10:25:13.707Z,1.88
2023-02-05T10:28:01.971Z,2.50
2023-02-05T10:30:30.957Z,2.08
2023-02-05T10:33:04.179Z,1.80
2023-02-05T10:35:46.924Z,1.52
2023-02-05T10:38:20.247Z,2.60
2023-02-05T10:40:48.448Z,1.50
2023-02-05T10:43:37.755Z,1.10
2023-02-05T10:46:05.158Z,1.15
2023-02-05T10:48:37.590Z,1.67
2023-02-05T10:51:05.320Z,1.10
2023-02-05T10:53:32.656Z,1.33
2023-02-05T10:55:59.906Z,0.98
2023-02-05T11:02:19.836Z,1.42
2023-02-05T11:04:50.644Z,1.25
2023-02-05T11:07:24.916Z,1.40
2023-02-05T11:09:51.309Z,1.15
2023-02-05T11:12:22.014Z,1.13
2023-02-05T11:15:03.420Z,1.40
2023-02-05T11:17:38.226Z,1.33
2023-02-05T11:20:08.040Z,0.95
2023-02-05T11:22:35.922Z,1.00
2023-02-05T11:25:08.470Z,1.13
2023-02-05T11:27:35.561Z,1.08
2023-02-05T11:30:37.614Z,1.20
2023-02-05T11:33:21.345Z,1.15
2023-02-05T11:35:56.845Z,1.30
2023-02-05T11:38:27.870Z,0.90
2023-02-05T11:40:54.418Z,1.08
2023-02-05T11:43:26.359Z,1.27
2023-02-05T11:45:53.726Z,0.80
2023-02-05T11:48:34.747Z,0.70
2023-02-05T11:51:02.438Z,0.95
2023-02-05T11:53:29.488Z,0.73
2023-02-05T11:55:58.097Z,1.00
2023-02-05T11:58:34.919Z,0.75
2023-02-05T12:01:07.246Z,1.60
2023-02-05T12:03:34.521Z,0.90
2023-02-05T12:06:24.182Z,1.25
2023-02-05T12:08:52.489Z,1.00
2023-02-05T12:11:30.395Z,1.25
2023-02-05T12:14:04.369Z,0.95
2023-02-05T12:16:48.395Z,1.35
2023-02-05T12:19:22.997Z,1.23
2023-02-05T12:22:05.375Z,1.05
2023-02-05T12:24:34.438Z,0.70
2023-02-05T12:27:08.893Z,1.08
2023-02-05T12:29:37.219Z,0.60
2023-02-05T12:32:10.095Z,0.77
2023-02-05T12:34:36.524Z,0.88
2023-02-05T12:37:09.527Z,0.80
2023-02-05T12:39:38.447Z,0.82
2023-02-05T12:42:07.737Z,0.95
2023-02-05T12:44:52.684Z,1.30
2023-02-05T12:47:31.576Z,1.15
2023-02-05T12:50:16.552Z,1.05
2023-02-05T12:52:50.867Z,1.63
2023-02-05T12:55:22.928Z,1.08
2023-02-05T12:58:09.564Z,1.25
2023-02-05T13:00:39.099Z,1.33
2023-02-05T13:03:14.753Z,1.70
2023-02-05T13:05:44.034Z,1.48
2023-02-05T13:08:29.184Z,1.42
2023-02-05T13:11:15.822Z,1.60
2023-02-05T13:13:50.842Z,1.70
2023-02-05T13:16:18.844Z,0.88
2023-02-05T13:18:54.177Z,2.28
2023-02-05T13:21:39.359Z,1.77
2023-02-05T13:24:33.868Z,1.33
2023-02-05T13:27:19.897Z,1.77
2023-02-05T13:29:51.511Z,1.92
2023-02-05T13:32:22.820Z,2.38
2023-02-05T13:34:54.604Z,2.03
2023-02-05T13:37:39.781Z,1.27
2023-02-05T13:40:31.847Z,2.30
2023-02-05T13:43:16.838Z,1.73
2023-02-05T13:46:02.061Z,1.15
2023-02-05T13:48:34.572Z,1.80
2023-02-05T13:51:12.874Z,1.33
2023-02-05T13:53:54.625Z,2.17
2023-02-05T13:56:39.405Z,1.40
2023-02-05T13:59:10.425Z,1.13
2023-02-05T14:01:44.751Z,1.10
2023-02-05T14:04:20.268Z,1.73
2023-02-05T14:06:50.098Z,1.40
2023-02-05T14:09:23.288Z,1.42
2023-02-05T14:11:52.986Z,1.67
2023-02-05T14:14:26.805Z,1.23
2023-02-05T14:16:55.034Z,1.15
2023-02-05T14:19:56.259Z,0.93
2023-02-05T14:22:39.565Z,1.30
2023-02-05T14:25:25.763Z,0.80
2023-02-05T14:27:55.359Z,1.30
2023-02-05T14:30:30.942Z,1.05
2023-02-05T14:32:59.637Z,1.08
2023-02-05T14:35:29.091Z,0.85
2023-02-05T14:38:03.116Z,1.58
2023-02-05T14:40:35.802Z,1.08
2023-02-05T14:43:12.976Z,1.35
2023-02-05T14:45:47.379Z,1.25
2023-02-05T14:48:26.161Z,1.00
2023-02-05T14:51:08.728Z,0.98
2023-02-05T14:56:01.926Z,1.15
2023-02-05T14:58:36.178Z,0.70
2023-02-05T15:01:21.086Z,1.98
2023-02-05T15:03:47.717Z,0.80
2023-02-05T15:06:17.354Z,1.27
2023-02-05T15:08:47.870Z,1.10
2023-02-05T15:11:26.285Z,1.10
2023-02-05T15:14:11.394Z,1.65
2023-02-05T15:16:38.424Z,0.95
2023-02-05T15:19:06.046Z,1.30
2023-02-05T15:21:41.924Z,0.85
2023-02-05T15:24:17.064Z,1.25
2023-02-05T15:26:55.277Z,0.98
2023-02-05T15:29:24.461Z,1.13
2023-02-05T15:31:55.488Z,1.42
2023-02-05T15:34:28.565Z,1.60
2023-02-05T15:36:55.085Z,1.15
2023-02-05T15:39:33.067Z,1.05
2023-02-05T15:42:01.245Z,1.70
2023-02-05T15:44:30.081Z,1.63
2023-02-05T15:47:03.103Z,2.05
2023-02-05T15:49:35.841Z,1.58
2023-02-05T15:52:02.410Z,2.05
2023-02-05T15:54:31.838Z,1.73
2023-02-05T15:57:01.266Z,1.95
2023-02-05T15:59:29.442Z,1.65
2023-02-05T16:02:04.323Z,1.83
2023-02-05T16:04:32.413Z,2.20
2023-02-05T16:06:59.973Z,2.72
2023-02-05T16:09:27.843Z,2.65
2023-02-05T16:11:58.932Z,3.30
2023-02-05T16:14:28.657Z,3.03
2023-02-05T16:17:01.446Z,3.47
2023-02-05T16:19:50.798Z,4.85
2023-02-05T16:22:26.098Z,4.22
2023-02-05T16:24:56.438Z,5.65
2023-02-05T16:27:43.698Z,5.45
2023-02-05T16:30:20.772Z,6.53
2023-02-05T16:32:49.349Z,6.72
2023-02-05T16:35:28.985Z,7.53
2023-02-05T16:37:55.745Z,6.45
2023-02-05T16:40:35.640Z,8.05
2023-02-05T16:43:17.678Z,8.15
2023-02-05T16:46:03.799Z,8.52
2023-02-05T16:48:31.720Z,9.80
2023-02-05T16:50:58.161Z,9.85
2023-02-05T16:53:26.774Z,10.40
2023-02-05T16:55:59.081Z,10.93
2023-02-05T16:58:27.888Z,10.63
2023-02-05T17:00:57.638Z,11.77
2023-02-05T17:03:25.882Z,13.52
2023-02-05T17:05:57.045Z,13.70
2023-02-05T17:08:31.538Z,13.30
2023-02-05T17:10:59.673Z,13.82
2023-02-05T17:13:28.983Z,15.77
2023-02-05T17:15:55.778Z,15.50
2023-02-05T17:18:27.611Z,13.85
2023-02-05T17:21:12.880Z,15.50
2023-02-05T17:23:39.314Z,14.40
2023-02-05T17:26:06.043Z,14.60
2023-02-05T17:28:35.060Z,15.65
2023-02-05T17:31:02.276Z,15.75
2023-02-05T17:33:28.904Z,14.18
2023-02-05T17:35:55.760Z,15.23
2023-02-05T17:38:23.621Z,15.30
2023-02-05T17:40:50.456Z,14.07
2023-02-05T17:43:16.874Z,14.48
2023-02-05T17:45:44.335Z,14.27
2023-02-05T17:48:11.598Z,15.93
2023-02-05T17:50:38.314Z,15.85
2023-02-05T17:53:04.953Z,15.75
2023-02-05T17:55:32.493Z,14.23
2023-02-05T17:57:59.221Z,14.98
2023-02-05T18:00:27.247Z,16.48
2023-02-05T18:02:54.040Z,15.85
2023-02-05T18:05:20.636Z,14.98
2023-02-05T18:07:50.765Z,15.70
2023-02-05T18:10:18.771Z,15.00
2023-02-05T18:12:45.169Z,14.48
2023-02-05T18:15:18.635Z,14.43
2023-02-05T18:17:45.145Z,14.85
2023-02-05T18:20:12.470Z,14.95
2023-02-05T18:22:39.186Z,15.75
2023-02-05T18:25:06.223Z,14.95
2023-02-05T18:27:32.778Z,14.52
2023-02-05T18:29:59.220Z,14.30
2023-02-05T18:32:25.791Z,14.57
2023-02-05T18:34:52.956Z,14.63
2023-02-05T18:37:19.517Z,14.50
2023-02-05T18:39:46.473Z,15.38
2023-02-05T18:42:12.962Z,14.88
2023-02-05T18:44:39.693Z,15.30
2023-02-05T18:47:07.262Z,15.35
2023-02-05T18:49:34.371Z,14.05
2023-02-05T18:52:01.261Z,16.25
2023-02-05T18:54:27.699Z,16.35
2023-02-05T18:56:54.920Z,14.65
2023-02-05T18:59:24.141Z,15.07
2023-02-05T19:01:51.128Z,13.50
2023-02-05T19:04:23.640Z,15.00
2023-02-05T19:06:52.424Z,16.25
2023-02-05T19:09:22.986Z,14.23
2023-02-05T19:11:54.786Z,17.55
2023-02-05T19:14:22.600Z,15.30
2023-02-05T19:16:49.563Z,17.02
2023-02-05T19:19:18.810Z,16.33
2023-02-05T19:21:45.622Z,17.00
2023-02-05T19:24:13.368Z,17.02
2023-02-05T19:26:42.799Z,18.30
2023-02-05T19:29:12.999Z,17.98
2023-02-05T19:31:39.387Z,19.40
2023-02-05T19:34:06.475Z,16.23
2023-02-05T19:36:33.501Z,18.77
2023-02-05T19:39:00.407Z,16.98
2023-02-05T19:41:27.262Z,18.58
2023-02-05T19:43:55.097Z,17.80
2023-02-05T19:46:23.399Z,17.10
2023-02-05T19:48:49.849Z,18.23
2023-02-05T19:51:16.515Z,17.10
2023-02-05T19:53:44.101Z,15.68
2023-02-05T19:56:14.922Z,15.82
2023-02-05T19:58:42.505Z,15.55
2023-02-05T20:01:13.147Z,15.65
2023-02-05T20:03:39.662Z,14.77
2023-02-05T20:06:06.304Z,15.85
2023-02-05T20:08:32.712Z,13.88
2023-02-05T20:11:03.635Z,14.35
2023-02-05T20:13:31.035Z,14.88
2023-02-05T20:16:00.597Z,13.60
2023-02-05T20:18:27.014Z,13.38
2023-02-05T20:20:53.419Z,13.95
2023-02-05T20:23:21.182Z,13.63
2023-02-05T20:25:58.815Z,14.00
2023-02-05T20:28:26.221Z,12.52
2023-02-05T20:31:11.245Z,12.65
2023-02-05T20:33:39.983Z,13.10
2023-02-05T20:36:09.877Z,14.13
2023-02-05T20:38:36.444Z,12.07
2023-02-05T20:41:17.073Z,13.57
2023-02-05T20:43:43.671Z,15.00
2023-02-05T20:46:10.911Z,13.65
2023-02-05T20:48:37.920Z,13.85
2023-02-05T20:51:05.288Z,14.18
2023-02-05T20:53:33.673Z,15.27
2023-02-05T20:56:01.029Z,13.65
2023-02-05T20:58:38.019Z,12.32
2023-02-05T21:01:06.255Z,14.57
2023-02-05T21:03:33.194Z,16.20
2023-02-05T21:05:59.661Z,18.10
2023-02-05T21:08:26.142Z,13.98
2023-02-05T21:10:52.583Z,15.80
2023-02-05T21:13:19.007Z,17.30
2023-02-05T21:15:52.439Z,17.20
2023-02-05T21:18:18.920Z,16.38
2023-02-05T21:20:46.809Z,18.38
2023-02-05T21:23:13.204Z,16.58
2023-02-05T21:25:39.591Z,17.15
2023-02-05T21:28:06.016Z,17.48
2023-02-05T21:30:32.527Z,17.90
2023-02-05T21:32:58.937Z,17.48
2023-02-05T21:35:25.337Z,18.38
2023-02-05T21:37:51.795Z,16.00
2023-02-05T21:40:18.378Z,17.02
2023-02-05T21:42:44.775Z,16.60
2023-02-05T21:45:11.551Z,16.95
2023-02-05T21:47:37.974Z,17.15
2023-02-05T21:50:04.679Z,17.42
2023-02-05T21:52:31.089Z,18.58
2023-02-05T21:54:57.524Z,18.85
2023-02-05T21:57:26.628Z,18.83
2023-02-05T21:59:53.400Z,18.65
2023-02-05T22:02:19.844Z,18.83
2023-02-05T22:04:46.296Z,20.73
2023-02-05T22:07:12.693Z,20.98
2023-02-05T22:09:39.093Z,21.27
2023-02-05T22:12:06.336Z,20.92
2023-02-05T22:14:33.486Z,18.63
2023-02-05T22:17:00.456Z,18.75
2023-02-05T22:19:29.439Z,20.25
2023-02-05T22:21:57.509Z,19.30
2023-02-05T22:24:24.004Z,20.30
2023-02-05T22:26:50.691Z,21.27
2023-02-05T22:29:19.163Z,20.50
2023-02-05T22:31:46.565Z,20.25
2023-02-05T22:34:13.080Z,20.58
2023-02-05T22:36:39.474Z,20.08
2023-02-05T22:39:08.548Z,20.10
2023-02-05T22:41:36.816Z,19.77
2023-02-05T22:44:04.197Z,17.48
2023-02-05T22:46:40.616Z,19.52
2023-02-05T22:49:07.276Z,20.65
2023-02-05T22:51:38.235Z,18.55
2023-02-05T22:54:05.339Z,19.80
2023-02-05T22:56:32.046Z,19.38
2023-02-05T22:58:59.725Z,19.10
2023-02-05T23:01:29.116Z,18.85
2023-02-05T23:03:56.258Z,18.77
2023-02-05T23:06:27.171Z,18.55
2023-02-05T23:08:55.292Z,18.83
2023-02-05T23:11:22.217Z,20.42
2023-02-05T23:13:50.822Z,18.73
2023-02-05T23:16:30.838Z,22.92
2023-02-05T23:19:01.541Z,21.65
2023-02-05T23:21:29.949Z,20.17
2023-02-05T23:23:58.949Z,21.35
2023-02-05T23:26:30.963Z,18.73
2023-02-05T23:29:00.189Z,20.38
2023-02-05T23:31:27.260Z,23.38
2023-02-05T23:33:54.012Z,20.25
2023-02-05T23:36:20.499Z,19.63
2023-02-05T23:38:47.485Z,20.95
2023-02-05T23:41:14.185Z,20.42
2023-02-05T23:43:42.411Z,21.17
2023-02-05T23:46:09.005Z,20.88
2023-02-05T23:48:35.528Z,20.73
2023-02-05T23:51:02.056Z,21.85
2023-02-05T23:53:28.508Z,19.80
2023-02-05T23:55:55.032Z,21.90
2023-02-05T23:58:23.991Z,21.23
